sensor_id;sensor_type;location;lat;lon;timestamp;temperature;humidity
67133;HTU21D;54052;53.542;49.408;2023-01-16T00:01:25;-9.57;60.58
67133;HTU21D;54052;53.542;49.408;2023-01-16T00:03:52;-9.44;60.54
67133;HTU21D;54052;53.542;49.408;2023-01-16T00:06:18;-9.43;60.33
67133;HTU21D;54052;53.542;49.408;2023-01-16T00:08:44;-9.44;59.58
67133;HTU21D;54052;53.542;49.408;2023-01-16T00:11:11;-9.45;60.38
67133;HTU21D;54052;53.542;49.408;2023-01-16T00:13:38;-9.43;60.36
67133;HTU21D;54052;53.542;49.408;2023-01-16T00:16:05;-9.34;59.58
67133;HTU21D;54052;53.542;49.408;2023-01-16T00:18:32;-9.28;59.51
67133;HTU21D;54052;53.542;49.408;2023-01-16T00:20:58;-9.18;59.67
67133;HTU21D;54052;53.542;49.408;2023-01-16T00:23:24;-9.30;59.77
67133;HTU21D;54052;53.542;49.408;2023-01-16T00:25:50;-9.28;59.48
67133;HTU21D;54052;53.542;49.408;2023-01-16T00:28:16;-9.31;59.83
67133;HTU21D;54052;53.542;49.408;2023-01-16T00:30:42;-9.33;59.97
67133;HTU21D;54052;53.542;49.408;2023-01-16T00:33:09;-9.33;59.34
67133;HTU21D;54052;53.542;49.408;2023-01-16T00:35:35;-9.34;60.21
67133;HTU21D;54052;53.542;49.408;2023-01-16T00:38:01;-9.34;60.05
67133;HTU21D;54052;53.542;49.408;2023-01-16T00:40:27;-9.34;60.47
67133;HTU21D;54052;53.542;49.408;2023-01-16T00:42:54;-9.44;60.29
67133;HTU21D;54052;53.542;49.408;2023-01-16T00:45:20;-9.52;60.71
67133;HTU21D;54052;53.542;49.408;2023-01-16T00:47:46;-9.49;60.32
67133;HTU21D;54052;53.542;49.408;2023-01-16T00:50:12;-9.46;60.41
67133;HTU21D;54052;53.542;49.408;2023-01-16T00:52:38;-9.54;60.35
67133;HTU21D;54052;53.542;49.408;2023-01-16T00:55:05;-9.49;60.86
67133;HTU21D;54052;53.542;49.408;2023-01-16T00:57:31;-9.57;61.70
67133;HTU21D;54052;53.542;49.408;2023-01-16T00:59:57;-9.62;60.49
67133;HTU21D;54052;53.542;49.408;2023-01-16T01:02:23;-9.68;60.65
67133;HTU21D;54052;53.542;49.408;2023-01-16T01:04:49;-9.69;60.54
67133;HTU21D;54052;53.542;49.408;2023-01-16T01:07:15;-9.64;60.25
67133;HTU21D;54052;53.542;49.408;2023-01-16T01:09:41;-9.63;60.25
67133;HTU21D;54052;53.542;49.408;2023-01-16T01:12:07;-9.60;60.05
67133;HTU21D;54052;53.542;49.408;2023-01-16T01:14:33;-9.56;60.32
67133;HTU21D;54052;53.542;49.408;2023-01-16T01:16:59;-9.39;60.27
67133;HTU21D;54052;53.542;49.408;2023-01-16T01:19:25;-9.36;59.93
67133;HTU21D;54052;53.542;49.408;2023-01-16T01:21:51;-9.36;60.05
67133;HTU21D;54052;53.542;49.408;2023-01-16T01:24:17;-9.54;60.47
67133;HTU21D;54052;53.542;49.408;2023-01-16T01:26:43;-9.73;61.21
67133;HTU21D;54052;53.542;49.408;2023-01-16T01:29:09;-9.93;62.91
67133;HTU21D;54052;53.542;49.408;2023-01-16T01:31:35;-10.02;62.07
67133;HTU21D;54052;53.542;49.408;2023-01-16T01:34:02;-10.11;62.18
67133;HTU21D;54052;53.542;49.408;2023-01-16T01:36:28;-10.18;64.10
67133;HTU21D;54052;53.542;49.408;2023-01-16T01:38:54;-10.26;63.97
67133;HTU21D;54052;53.542;49.408;2023-01-16T01:41:20;-10.23;63.33
67133;HTU21D;54052;53.542;49.408;2023-01-16T01:43:51;-10.25;62.77
67133;HTU21D;54052;53.542;49.408;2023-01-16T01:48:48;-10.19;62.39
67133;HTU21D;54052;53.542;49.408;2023-01-16T01:51:23;-10.15;62.47
67133;HTU21D;54052;53.542;49.408;2023-01-16T01:53:56;-10.12;61.99
67133;HTU21D;54052;53.542;49.408;2023-01-16T01:56:35;-10.13;62.12
67133;HTU21D;54052;53.542;49.408;2023-01-16T01:59:07;-10.10;61.76
67133;HTU21D;54052;53.542;49.408;2023-01-16T02:01:34;-10.10;61.64
67133;HTU21D;54052;53.542;49.408;2023-01-16T02:04:05;-10.07;62.06
67133;HTU21D;54052;53.542;49.408;2023-01-16T02:06:40;-10.02;61.88
67133;HTU21D;54052;53.542;49.408;2023-01-16T02:09:08;-10.01;61.67
67133;HTU21D;54052;53.542;49.408;2023-01-16T02:11:44;-10.05;62.40
67133;HTU21D;54052;53.542;49.408;2023-01-16T02:14:13;-10.15;62.13
67133;HTU21D;54052;53.542;49.408;2023-01-16T02:16:41;-10.21;63.04
67133;HTU21D;54052;53.542;49.408;2023-01-16T02:36:24;-10.18;62.18
67133;HTU21D;54052;53.542;49.408;2023-01-16T02:39:22;-10.27;62.95
67133;HTU21D;54052;53.542;49.408;2023-01-16T02:42:03;-10.16;62.53
67133;HTU21D;54052;53.542;49.408;2023-01-16T02:45:01;-10.26;62.52
67133;HTU21D;54052;53.542;49.408;2023-01-16T02:50:47;-10.50;63.36
67133;HTU21D;54052;53.542;49.408;2023-01-16T02:53:32;-10.57;64.30
67133;HTU21D;54052;53.542;49.408;2023-01-16T02:56:09;-10.56;64.40
67133;HTU21D;54052;53.542;49.408;2023-01-16T02:58:42;-10.58;64.20
67133;HTU21D;54052;53.542;49.408;2023-01-16T03:01:09;-10.50;64.35
67133;HTU21D;54052;53.542;49.408;2023-01-16T03:03:42;-10.56;64.65
67133;HTU21D;54052;53.542;49.408;2023-01-16T03:11:20;-10.53;63.89
67133;HTU21D;54052;53.542;49.408;2023-01-16T03:16:37;-10.71;64.37
67133;HTU21D;54052;53.542;49.408;2023-01-16T03:19:25;-10.78;64.56
67133;HTU21D;54052;53.542;49.408;2023-01-16T03:27:29;-10.90;65.53
67133;HTU21D;54052;53.542;49.408;2023-01-16T03:30:10;-10.87;64.66
67133;HTU21D;54052;53.542;49.408;2023-01-16T03:32:50;-10.85;65.08
67133;HTU21D;54052;53.542;49.408;2023-01-16T03:35:39;-10.92;64.40
67133;HTU21D;54052;53.542;49.408;2023-01-16T03:38:10;-10.87;64.28
67133;HTU21D;54052;53.542;49.408;2023-01-16T03:40:40;-10.85;64.14
67133;HTU21D;54052;53.542;49.408;2023-01-16T03:43:25;-10.76;64.40
67133;HTU21D;54052;53.542;49.408;2023-01-16T03:51:06;-10.94;65.05
67133;HTU21D;54052;53.542;49.408;2023-01-16T03:53:37;-10.95;65.04
67133;HTU21D;54052;53.542;49.408;2023-01-16T03:56:13;-10.91;64.61
67133;HTU21D;54052;53.542;49.408;2023-01-16T03:58:42;-10.90;65.40
67133;HTU21D;54052;53.542;49.408;2023-01-16T04:04:15;-10.94;64.31
67133;HTU21D;54052;53.542;49.408;2023-01-16T04:06:59;-10.93;64.20
67133;HTU21D;54052;53.542;49.408;2023-01-16T04:09:57;-10.93;64.56
67133;HTU21D;54052;53.542;49.408;2023-01-16T04:12:33;-10.97;64.88
67133;HTU21D;54052;53.542;49.408;2023-01-16T04:15:05;-11.02;65.07
67133;HTU21D;54052;53.542;49.408;2023-01-16T04:17:34;-11.02;65.82
67133;HTU21D;54052;53.542;49.408;2023-01-16T04:20:02;-10.96;64.63
67133;HTU21D;54052;53.542;49.408;2023-01-16T04:22:29;-10.89;64.47
67133;HTU21D;54052;53.542;49.408;2023-01-16T04:24:58;-10.91;64.76
67133;HTU21D;54052;53.542;49.408;2023-01-16T04:27:24;-10.86;64.50
67133;HTU21D;54052;53.542;49.408;2023-01-16T04:29:50;-10.93;64.41
67133;HTU21D;54052;53.542;49.408;2023-01-16T04:32:16;-10.97;64.40
67133;HTU21D;54052;53.542;49.408;2023-01-16T04:34:42;-11.00;64.79
67133;HTU21D;54052;53.542;49.408;2023-01-16T04:37:12;-10.99;65.14
67133;HTU21D;54052;53.542;49.408;2023-01-16T04:39:38;-11.06;64.82
67133;HTU21D;54052;53.542;49.408;2023-01-16T04:42:07;-11.12;64.72
67133;HTU21D;54052;53.542;49.408;2023-01-16T04:44:33;-11.16;65.53
67133;HTU21D;54052;53.542;49.408;2023-01-16T04:46:59;-11.21;64.85
67133;HTU21D;54052;53.542;49.408;2023-01-16T04:49:25;-11.31;64.81
67133;HTU21D;54052;53.542;49.408;2023-01-16T04:51:52;-11.37;65.44
67133;HTU21D;54052;53.542;49.408;2023-01-16T04:54:19;-11.39;65.62
67133;HTU21D;54052;53.542;49.408;2023-01-16T04:56:45;-11.44;65.72
67133;HTU21D;54052;53.542;49.408;2023-01-16T04:59:11;-11.47;65.39
67133;HTU21D;54052;53.542;49.408;2023-01-16T05:01:42;-11.40;65.43
67133;HTU21D;54052;53.542;49.408;2023-01-16T05:04:09;-11.37;65.37
67133;HTU21D;54052;53.542;49.408;2023-01-16T05:06:36;-11.31;64.88
67133;HTU21D;54052;53.542;49.408;2023-01-16T05:09:04;-11.32;64.99
67133;HTU21D;54052;53.542;49.408;2023-01-16T05:11:31;-11.44;65.27
67133;HTU21D;54052;53.542;49.408;2023-01-16T05:13:57;-11.41;64.96
67133;HTU21D;54052;53.542;49.408;2023-01-16T05:16:23;-11.33;65.16
67133;HTU21D;54052;53.542;49.408;2023-01-16T05:18:49;-11.25;64.59
67133;HTU21D;54052;53.542;49.408;2023-01-16T05:21:15;-11.31;65.40
67133;HTU21D;54052;53.542;49.408;2023-01-16T05:23:41;-11.30;64.76
67133;HTU21D;54052;53.542;49.408;2023-01-16T05:26:07;-11.29;64.79
67133;HTU21D;54052;53.542;49.408;2023-01-16T05:28:34;-11.25;64.52
67133;HTU21D;54052;53.542;49.408;2023-01-16T05:31:01;-11.19;64.83
67133;HTU21D;54052;53.542;49.408;2023-01-16T05:33:27;-11.10;64.43
67133;HTU21D;54052;53.542;49.408;2023-01-16T05:35:54;-11.02;64.93
67133;HTU21D;54052;53.542;49.408;2023-01-16T05:38:21;-11.02;63.79
67133;HTU21D;54052;53.542;49.408;2023-01-16T05:40:47;-11.00;63.82
67133;HTU21D;54052;53.542;49.408;2023-01-16T05:43:14;-10.92;63.40
67133;HTU21D;54052;53.542;49.408;2023-01-16T05:45:40;-10.73;62.53
67133;HTU21D;54052;53.542;49.408;2023-01-16T05:48:06;-10.72;62.87
67133;HTU21D;54052;53.542;49.408;2023-01-16T05:50:32;-10.79;63.41
67133;HTU21D;54052;53.542;49.408;2023-01-16T05:52:59;-10.84;63.95
67133;HTU21D;54052;53.542;49.408;2023-01-16T05:55:25;-10.75;62.39
67133;HTU21D;54052;53.542;49.408;2023-01-16T05:57:51;-10.68;63.18
67133;HTU21D;54052;53.542;49.408;2023-01-16T06:00:17;-10.66;63.12
67133;HTU21D;54052;53.542;49.408;2023-01-16T06:02:45;-10.62;61.67
67133;HTU21D;54052;53.542;49.408;2023-01-16T06:05:12;-10.65;62.31
67133;HTU21D;54052;53.542;49.408;2023-01-16T06:07:39;-10.64;62.17
67133;HTU21D;54052;53.542;49.408;2023-01-16T06:10:09;-10.56;62.15
67133;HTU21D;54052;53.542;49.408;2023-01-16T06:12:35;-10.53;61.88
67133;HTU21D;54052;53.542;49.408;2023-01-16T06:15:01;-10.52;61.88
67133;HTU21D;54052;53.542;49.408;2023-01-16T06:17:27;-10.47;61.53
67133;HTU21D;54052;53.542;49.408;2023-01-16T06:19:53;-10.45;61.62
67133;HTU21D;54052;53.542;49.408;2023-01-16T06:22:19;-10.36;61.31
67133;HTU21D;54052;53.542;49.408;2023-01-16T06:24:46;-10.33;60.86
67133;HTU21D;54052;53.542;49.408;2023-01-16T06:27:12;-10.20;60.89
67133;HTU21D;54052;53.542;49.408;2023-01-16T06:29:38;-10.25;60.85
67133;HTU21D;54052;53.542;49.408;2023-01-16T06:32:04;-10.22;60.79
67133;HTU21D;54052;53.542;49.408;2023-01-16T06:34:30;-10.21;61.41
67133;HTU21D;54052;53.542;49.408;2023-01-16T06:36:56;-10.25;60.27
67133;HTU21D;54052;53.542;49.408;2023-01-16T06:39:22;-10.21;60.62
67133;HTU21D;54052;53.542;49.408;2023-01-16T06:41:48;-10.19;60.70
67133;HTU21D;54052;53.542;49.408;2023-01-16T06:44:14;-10.15;60.15
67133;HTU21D;54052;53.542;49.408;2023-01-16T06:46:40;-10.06;59.77
67133;HTU21D;54052;53.542;49.408;2023-01-16T06:49:06;-10.07;60.35
67133;HTU21D;54052;53.542;49.408;2023-01-16T06:51:32;-10.06;60.05
67133;HTU21D;54052;53.542;49.408;2023-01-16T06:53:58;-10.00;60.47
67133;HTU21D;54052;53.542;49.408;2023-01-16T06:56:24;-9.96;60.53
67133;HTU21D;54052;53.542;49.408;2023-01-16T06:58:51;-9.88;60.20
67133;HTU21D;54052;53.542;49.408;2023-01-16T07:01:17;-9.72;59.77
67133;HTU21D;54052;53.542;49.408;2023-01-16T07:03:43;-9.60;58.70
67133;HTU21D;54052;53.542;49.408;2023-01-16T07:06:09;-9.38;58.48
67133;HTU21D;54052;53.542;49.408;2023-01-16T07:08:35;-9.44;58.13
67133;HTU21D;54052;53.542;49.408;2023-01-16T07:11:01;-9.49;58.37
67133;HTU21D;54052;53.542;49.408;2023-01-16T07:13:27;-9.54;59.16
67133;HTU21D;54052;53.542;49.408;2023-01-16T07:15:55;-9.52;58.66
67133;HTU21D;54052;53.542;49.408;2023-01-16T07:18:40;-9.34;58.33
67133;HTU21D;54052;53.542;49.408;2023-01-16T07:21:40;-9.31;58.42
67133;HTU21D;54052;53.542;49.408;2023-01-16T07:24:27;-9.13;57.83
67133;HTU21D;54052;53.542;49.408;2023-01-16T07:26:57;-8.99;57.16
67133;HTU21D;54052;53.542;49.408;2023-01-16T07:29:26;-8.84;56.52
67133;HTU21D;54052;53.542;49.408;2023-01-16T07:31:54;-8.74;56.64
67133;HTU21D;54052;53.542;49.408;2023-01-16T07:34:20;-8.66;56.15
67133;HTU21D;54052;53.542;49.408;2023-01-16T07:36:48;-8.64;56.05
67133;HTU21D;54052;53.542;49.408;2023-01-16T07:39:14;-8.58;55.86
67133;HTU21D;54052;53.542;49.408;2023-01-16T07:41:40;-8.56;55.39
67133;HTU21D;54052;53.542;49.408;2023-01-16T07:44:06;-8.63;55.45
67133;HTU21D;54052;53.542;49.408;2023-01-16T07:46:32;-8.59;55.79
67133;HTU21D;54052;53.542;49.408;2023-01-16T07:48:59;-8.67;55.58
67133;HTU21D;54052;53.542;49.408;2023-01-16T07:51:25;-8.73;55.94
67133;HTU21D;54052;53.542;49.408;2023-01-16T07:53:51;-8.69;55.70
67133;HTU21D;54052;53.542;49.408;2023-01-16T07:56:17;-8.82;56.00
67133;HTU21D;54052;53.542;49.408;2023-01-16T07:58:43;-8.85;56.77
67133;HTU21D;54052;53.542;49.408;2023-01-16T08:01:10;-8.82;56.46
67133;HTU21D;54052;53.542;49.408;2023-01-16T08:03:37;-8.71;56.47
67133;HTU21D;54052;53.542;49.408;2023-01-16T08:06:03;-8.67;55.29
67133;HTU21D;54052;53.542;49.408;2023-01-16T08:08:30;-8.77;57.16
67133;HTU21D;54052;53.542;49.408;2023-01-16T08:10:57;-8.66;56.06
67133;HTU21D;54052;53.542;49.408;2023-01-16T08:13:24;-8.55;56.13
67133;HTU21D;54052;53.542;49.408;2023-01-16T08:15:51;-8.40;55.49
67133;HTU21D;54052;53.542;49.408;2023-01-16T08:18:17;-8.42;55.26
67133;HTU21D;54052;53.542;49.408;2023-01-16T08:20:45;-8.35;55.62
67133;HTU21D;54052;53.542;49.408;2023-01-16T08:23:12;-8.24;54.75
67133;HTU21D;54052;53.542;49.408;2023-01-16T08:25:38;-8.30;54.17
67133;HTU21D;54052;53.542;49.408;2023-01-16T08:28:05;-8.27;54.32
67133;HTU21D;54052;53.542;49.408;2023-01-16T08:30:31;-8.22;54.62
67133;HTU21D;54052;53.542;49.408;2023-01-16T08:33:00;-8.19;54.74
67133;HTU21D;54052;53.542;49.408;2023-01-16T08:35:26;-8.22;54.56
67133;HTU21D;54052;53.542;49.408;2023-01-16T08:37:52;-8.25;55.16
67133;HTU21D;54052;53.542;49.408;2023-01-16T08:40:19;-8.10;54.51
67133;HTU21D;54052;53.542;49.408;2023-01-16T08:42:45;-8.05;54.20
67133;HTU21D;54052;53.542;49.408;2023-01-16T08:45:29;-8.11;54.26
67133;HTU21D;54052;53.542;49.408;2023-01-16T08:48:23;-8.15;55.52
67133;HTU21D;54052;53.542;49.408;2023-01-16T08:51:14;-8.06;54.18
67133;HTU21D;54052;53.542;49.408;2023-01-16T08:53:53;-7.87;53.67
67133;HTU21D;54052;53.542;49.408;2023-01-16T08:56:21;-7.80;53.32
67133;HTU21D;54052;53.542;49.408;2023-01-16T08:58:47;-7.84;53.94
67133;HTU21D;54052;53.542;49.408;2023-01-16T09:01:13;-8.01;54.45
67133;HTU21D;54052;53.542;49.408;2023-01-16T09:03:39;-8.04;54.07
67133;HTU21D;54052;53.542;49.408;2023-01-16T09:06:05;-8.01;54.13
67133;HTU21D;54052;53.542;49.408;2023-01-16T09:08:32;-7.93;53.71
67133;HTU21D;54052;53.542;49.408;2023-01-16T09:10:58;-7.84;53.26
67133;HTU21D;54052;53.542;49.408;2023-01-16T09:13:42;-7.72;53.59
67133;HTU21D;54052;53.542;49.408;2023-01-16T09:16:21;-7.77;53.26
67133;HTU21D;54052;53.542;49.408;2023-01-16T09:18:48;-7.78;53.90
67133;HTU21D;54052;53.542;49.408;2023-01-16T09:21:14;-7.62;53.06
67133;HTU21D;54052;53.542;49.408;2023-01-16T09:23:40;-7.51;53.02
67133;HTU21D;54052;53.542;49.408;2023-01-16T09:26:07;-7.38;52.59
67133;HTU21D;54052;53.542;49.408;2023-01-16T09:28:33;-7.39;52.39
67133;HTU21D;54052;53.542;49.408;2023-01-16T09:30:59;-7.40;52.42
67133;HTU21D;54052;53.542;49.408;2023-01-16T09:33:25;-7.39;53.18
67133;HTU21D;54052;53.542;49.408;2023-01-16T09:35:51;-7.29;53.87
67133;HTU21D;54052;53.542;49.408;2023-01-16T09:38:17;-7.17;51.93
67133;HTU21D;54052;53.542;49.408;2023-01-16T09:40:47;-7.13;52.56
67133;HTU21D;54052;53.542;49.408;2023-01-16T09:46:14;-7.12;51.62
67133;HTU21D;54052;53.542;49.408;2023-01-16T09:51:37;-6.93;51.24
67133;HTU21D;54052;53.542;49.408;2023-01-16T09:54:21;-6.95;53.33
67133;HTU21D;54052;53.542;49.408;2023-01-16T09:57:12;-6.96;51.74
67133;HTU21D;54052;53.542;49.408;2023-01-16T10:00:00;-6.91;51.58
67133;HTU21D;54052;53.542;49.408;2023-01-16T10:02:32;-6.85;51.14
67133;HTU21D;54052;53.542;49.408;2023-01-16T10:05:00;-6.83;49.63
67133;HTU21D;54052;53.542;49.408;2023-01-16T10:10:18;-6.86;49.87
67133;HTU21D;54052;53.542;49.408;2023-01-16T10:12:54;-6.81;48.89
67133;HTU21D;54052;53.542;49.408;2023-01-16T10:16:29;-6.65;47.73
67133;HTU21D;54052;53.542;49.408;2023-01-16T10:24:43;-6.21;46.81
67133;HTU21D;54052;53.542;49.408;2023-01-16T10:26:58;-6.13;45.54
67133;HTU21D;54052;53.542;49.408;2023-01-16T10:29:49;-6.08;45.22
67133;HTU21D;54052;53.542;49.408;2023-01-16T10:38:30;-6.05;45.03
67133;HTU21D;54052;53.542;49.408;2023-01-16T10:41:28;-6.14;46.67
67133;HTU21D;54052;53.542;49.408;2023-01-16T10:44:34;-6.12;46.74
67133;HTU21D;54052;53.542;49.408;2023-01-16T10:47:23;-6.05;47.32
67133;HTU21D;54052;53.542;49.408;2023-01-16T10:50:09;-6.06;46.23
67133;HTU21D;54052;53.542;49.408;2023-01-16T10:52:36;-6.23;46.79
67133;HTU21D;54052;53.542;49.408;2023-01-16T10:55:03;-6.36;47.57
67133;HTU21D;54052;53.542;49.408;2023-01-16T10:57:30;-6.29;46.93
67133;HTU21D;54052;53.542;49.408;2023-01-16T11:00:41;-6.46;47.74
67133;HTU21D;54052;53.542;49.408;2023-01-16T11:03:36;-6.37;46.51
67133;HTU21D;54052;53.542;49.408;2023-01-16T11:06:20;-6.28;46.41
67133;HTU21D;54052;53.542;49.408;2023-01-16T11:08:48;-6.36;46.76
67133;HTU21D;54052;53.542;49.408;2023-01-16T11:11:15;-6.46;48.02
67133;HTU21D;54052;53.542;49.408;2023-01-16T11:14:06;-6.53;47.69
67133;HTU21D;54052;53.542;49.408;2023-01-16T11:16:54;-6.56;47.19
67133;HTU21D;54052;53.542;49.408;2023-01-16T11:19:43;-6.56;47.89
67133;HTU21D;54052;53.542;49.408;2023-01-16T11:22:24;-6.65;47.61
67133;HTU21D;54052;53.542;49.408;2023-01-16T11:25:01;-6.58;46.50
67133;HTU21D;54052;53.542;49.408;2023-01-16T11:27:34;-6.42;46.27
67133;HTU21D;54052;53.542;49.408;2023-01-16T11:30:04;-6.39;45.99
67133;HTU21D;54052;53.542;49.408;2023-01-16T11:32:35;-6.36;46.86
67133;HTU21D;54052;53.542;49.408;2023-01-16T11:35:10;-6.38;47.00
67133;HTU21D;54052;53.542;49.408;2023-01-16T11:37:38;-6.38;45.73
67133;HTU21D;54052;53.542;49.408;2023-01-16T11:40:05;-6.39;47.46
67133;HTU21D;54052;53.542;49.408;2023-01-16T11:42:33;-6.63;47.48
67133;HTU21D;54052;53.542;49.408;2023-01-16T11:45:20;-6.65;48.31
67133;HTU21D;54052;53.542;49.408;2023-01-16T11:48:08;-6.66;46.96
67133;HTU21D;54052;53.542;49.408;2023-01-16T11:50:55;-6.67;47.65
67133;HTU21D;54052;53.542;49.408;2023-01-16T11:53:22;-6.76;47.58
67133;HTU21D;54052;53.542;49.408;2023-01-16T12:10:45;-7.07;48.40
67133;HTU21D;54052;53.542;49.408;2023-01-16T12:13:16;-7.02;47.49
67133;HTU21D;54052;53.542;49.408;2023-01-16T12:21:29;-7.29;48.90
67133;HTU21D;54052;53.542;49.408;2023-01-16T12:29:40;-7.35;47.99
67133;HTU21D;54052;53.542;49.408;2023-01-16T12:35:38;-7.34;47.61
67133;HTU21D;54052;53.542;49.408;2023-01-16T12:38:08;-7.35;47.99
67133;HTU21D;54052;53.542;49.408;2023-01-16T13:00:20;-7.67;48.55
67133;HTU21D;54052;53.542;49.408;2023-01-16T13:02:57;-7.82;48.66
67133;HTU21D;54052;53.542;49.408;2023-01-16T13:05:27;-7.86;48.63
67133;HTU21D;54052;53.542;49.408;2023-01-16T13:08:02;-7.97;49.11
67133;HTU21D;54052;53.542;49.408;2023-01-16T13:10:34;-8.05;48.99
67133;HTU21D;54052;53.542;49.408;2023-01-16T13:13:27;-8.08;49.91
67133;HTU21D;54052;53.542;49.408;2023-01-16T13:16:09;-8.06;49.32
67133;HTU21D;54052;53.542;49.408;2023-01-16T13:18:47;-7.99;49.88
67133;HTU21D;54052;53.542;49.408;2023-01-16T13:21:21;-8.04;50.17
67133;HTU21D;54052;53.542;49.408;2023-01-16T13:23:51;-8.09;49.70
67133;HTU21D;54052;53.542;49.408;2023-01-16T13:26:19;-8.19;50.66
67133;HTU21D;54052;53.542;49.408;2023-01-16T13:29:12;-8.22;50.08
67133;HTU21D;54052;53.542;49.408;2023-01-16T13:31:41;-8.11;49.63
67133;HTU21D;54052;53.542;49.408;2023-01-16T13:34:42;-8.20;50.45
67133;HTU21D;54052;53.542;49.408;2023-01-16T13:42:51;-8.07;49.75
67133;HTU21D;54052;53.542;49.408;2023-01-16T13:45:32;-8.09;49.83
67133;HTU21D;54052;53.542;49.408;2023-01-16T13:48:15;-8.03;49.77
67133;HTU21D;54052;53.542;49.408;2023-01-16T13:51:09;-7.98;49.66
67133;HTU21D;54052;53.542;49.408;2023-01-16T13:53:36;-7.96;50.34
67133;HTU21D;54052;53.542;49.408;2023-01-16T13:58:41;-7.86;49.95
67133;HTU21D;54052;53.542;49.408;2023-01-16T14:07:00;-8.12;50.58
67133;HTU21D;54052;53.542;49.408;2023-01-16T14:10:06;-8.14;50.92
67133;HTU21D;54052;53.542;49.408;2023-01-16T14:12:41;-8.23;51.45
67133;HTU21D;54052;53.542;49.408;2023-01-16T14:18:08;-8.52;51.63
67133;HTU21D;54052;53.542;49.408;2023-01-16T14:23:37;-8.60;52.52
67133;HTU21D;54052;53.542;49.408;2023-01-16T14:32:27;-8.71;53.80
67133;HTU21D;54052;53.542;49.408;2023-01-16T14:37:39;-8.60;53.81
67133;HTU21D;54052;53.542;49.408;2023-01-16T14:42:39;-8.72;54.26
67133;HTU21D;54052;53.542;49.408;2023-01-16T14:45:31;-8.73;53.97
67133;HTU21D;54052;53.542;49.408;2023-01-16T14:54:04;-8.52;52.82
67133;HTU21D;54052;53.542;49.408;2023-01-16T14:56:52;-8.57;52.91
67133;HTU21D;54052;53.542;49.408;2023-01-16T14:59:31;-8.63;52.64
67133;HTU21D;54052;53.542;49.408;2023-01-16T15:02:07;-8.62;53.23
67133;HTU21D;54052;53.542;49.408;2023-01-16T15:07:37;-8.72;55.90
67133;HTU21D;54052;53.542;49.408;2023-01-16T15:10:55;-8.73;54.10
67133;HTU21D;54052;53.542;49.408;2023-01-16T15:13:19;-8.70;53.83
67133;HTU21D;54052;53.542;49.408;2023-01-16T15:16:00;-8.67;53.65
67133;HTU21D;54052;53.542;49.408;2023-01-16T15:18:27;-8.66;54.01
67133;HTU21D;54052;53.542;49.408;2023-01-16T15:21:19;-8.63;53.46
67133;HTU21D;54052;53.542;49.408;2023-01-16T15:24:07;-8.66;53.40
67133;HTU21D;54052;53.542;49.408;2023-01-16T15:27:39;-8.78;54.77
67133;HTU21D;54052;53.542;49.408;2023-01-16T15:29:43;-8.87;54.59
67133;HTU21D;54052;53.542;49.408;2023-01-16T15:32:14;-8.93;54.96
67133;HTU21D;54052;53.542;49.408;2023-01-16T15:34:48;-8.88;55.29
67133;HTU21D;54052;53.542;49.408;2023-01-16T15:37:29;-8.90;54.87
67133;HTU21D;54052;53.542;49.408;2023-01-16T15:39:58;-8.75;53.91
67133;HTU21D;54052;53.542;49.408;2023-01-16T15:42:29;-8.73;54.15
67133;HTU21D;54052;53.542;49.408;2023-01-16T15:45:18;-8.73;53.37
67133;HTU21D;54052;53.542;49.408;2023-01-16T15:53:16;-8.98;54.59
67133;HTU21D;54052;53.542;49.408;2023-01-16T15:55:46;-9.01;54.64
67133;HTU21D;54052;53.542;49.408;2023-01-16T15:58:20;-9.11;53.97
67133;HTU21D;54052;53.542;49.408;2023-01-16T16:00:54;-9.22;55.11
67133;HTU21D;54052;53.542;49.408;2023-01-16T16:03:22;-9.27;54.84
67133;HTU21D;54052;53.542;49.408;2023-01-16T16:05:51;-9.28;54.83
67133;HTU21D;54052;53.542;49.408;2023-01-16T16:08:26;-9.20;54.79
67133;HTU21D;54052;53.542;49.408;2023-01-16T16:10:56;-9.12;53.91
67133;HTU21D;54052;53.542;49.408;2023-01-16T16:13:42;-8.99;53.14
67133;HTU21D;54052;53.542;49.408;2023-01-16T16:16:21;-9.01;52.65
67133;HTU21D;54052;53.542;49.408;2023-01-16T16:19:06;-9.09;53.58
67133;HTU21D;54052;53.542;49.408;2023-01-16T16:21:37;-9.12;53.93
67133;HTU21D;54052;53.542;49.408;2023-01-16T16:24:23;-9.07;53.34
67133;HTU21D;54052;53.542;49.408;2023-01-16T16:26:50;-9.11;53.64
67133;HTU21D;54052;53.542;49.408;2023-01-16T16:29:20;-9.08;53.91
67133;HTU21D;54052;53.542;49.408;2023-01-16T16:31:47;-8.95;54.03
67133;HTU21D;54052;53.542;49.408;2023-01-16T16:34:21;-9.03;54.13
67133;HTU21D;54052;53.542;49.408;2023-01-16T16:36:57;-8.97;53.67
67133;HTU21D;54052;53.542;49.408;2023-01-16T16:42:00;-8.81;52.33
67133;HTU21D;54052;53.542;49.408;2023-01-16T16:44:47;-8.85;53.01
67133;HTU21D;54052;53.542;49.408;2023-01-16T16:47:30;-8.97;53.74
67133;HTU21D;54052;53.542;49.408;2023-01-16T16:49:56;-9.00;52.28
67133;HTU21D;54052;53.542;49.408;2023-01-16T16:52:44;-8.96;52.72
67133;HTU21D;54052;53.542;49.408;2023-01-16T16:55:36;-8.96;51.95
67133;HTU21D;54052;53.542;49.408;2023-01-16T16:58:05;-8.94;52.01
67133;HTU21D;54052;53.542;49.408;2023-01-16T17:00:34;-9.05;53.49
67133;HTU21D;54052;53.542;49.408;2023-01-16T17:03:09;-9.16;55.60
67133;HTU21D;54052;53.542;49.408;2023-01-16T17:05:37;-9.26;55.26
67133;HTU21D;54052;53.542;49.408;2023-01-16T17:08:03;-9.29;55.07
67133;HTU21D;54052;53.542;49.408;2023-01-16T17:10:29;-9.33;53.85
67133;HTU21D;54052;53.542;49.408;2023-01-16T17:12:55;-9.39;53.94
67133;HTU21D;54052;53.542;49.408;2023-01-16T17:15:22;-9.42;54.23
67133;HTU21D;54052;53.542;49.408;2023-01-16T17:17:48;-9.40;55.14
67133;HTU21D;54052;53.542;49.408;2023-01-16T17:20:23;-9.40;53.64
67133;HTU21D;54052;53.542;49.408;2023-01-16T17:22:49;-9.40;52.98
67133;HTU21D;54052;53.542;49.408;2023-01-16T17:25:16;-9.37;54.10
67133;HTU21D;54052;53.542;49.408;2023-01-16T17:27:51;-9.40;53.63
67133;HTU21D;54052;53.542;49.408;2023-01-16T17:30:18;-9.47;53.52
67133;HTU21D;54052;53.542;49.408;2023-01-16T17:32:55;-9.48;53.29
67133;HTU21D;54052;53.542;49.408;2023-01-16T17:35:21;-9.55;53.75
67133;HTU21D;54052;53.542;49.408;2023-01-16T17:37:48;-9.68;54.13
67133;HTU21D;54052;53.542;49.408;2023-01-16T17:40:14;-9.75;54.60
67133;HTU21D;54052;53.542;49.408;2023-01-16T17:42:40;-9.74;54.29
67133;HTU21D;54052;53.542;49.408;2023-01-16T17:45:26;-9.70;53.97
67133;HTU21D;54052;53.542;49.408;2023-01-16T17:48:12;-9.70;54.43
67133;HTU21D;54052;53.542;49.408;2023-01-16T17:50:39;-9.67;53.84
67133;HTU21D;54052;53.542;49.408;2023-01-16T17:53:06;-9.60;53.37
67133;HTU21D;54052;53.542;49.408;2023-01-16T17:55:33;-9.68;53.97
67133;HTU21D;54052;53.542;49.408;2023-01-16T18:00:51;-9.69;53.97
67133;HTU21D;54052;53.542;49.408;2023-01-16T18:03:18;-9.81;53.48
67133;HTU21D;54052;53.542;49.408;2023-01-16T18:05:44;-9.73;53.43
67133;HTU21D;54052;53.542;49.408;2023-01-16T18:08:10;-9.72;53.33
67133;HTU21D;54052;53.542;49.408;2023-01-16T18:10:36;-9.71;52.93
67133;HTU21D;54052;53.542;49.408;2023-01-16T18:13:02;-9.74;52.99